Time;durP1;ratioP1;P1;durP2;ratioP2;P2;SDS_P1;SDS_P2;PMS_P1;PMS_P2;Temp;Humidity;BMP_temperature;BMP_pressure;BME280_temperature;BME280_humidity;BME280_pressure;Samples;Min_cycle;Max_cycle;Signal;HPM_P1;HPM_P2
2023/09/22 00:00:47;;;;;;;1.80;0.80;;;15.10;40.70;;;;;;5051727;28;20577;-68
2023/09/22 00:03:13;;;;;;;2.17;0.80;;;15.20;42.00;;;;;;5051411;28;20495;-68
2023/09/22 00:05:39;;;;;;;1.70;0.60;;;15.00;41.00;;;;;;5051153;28;20203;-68
2023/09/22 00:08:06;;;;;;;1.90;0.77;;;15.00;43.30;;;;;;5051416;28;20420;-68
2023/09/22 00:10:32;;;;;;;2.30;0.83;;;15.00;43.00;;;;;;5051391;28;20427;-69
2023/09/22 00:12:58;;;;;;;4.33;0.93;;;15.00;45.80;;;;;;5033178;28;20431;-68
2023/09/22 00:15:23;;;;;;;2.00;0.80;;;15.00;43.50;;;;;;5051224;28;20519;-69
2023/09/22 00:17:49;;;;;;;1.80;0.60;;;15.00;43.60;;;;;;5051259;28;20271;-68
2023/09/22 00:20:15;;;;;;;1.97;0.90;;;14.90;40.50;;;;;;5051142;28;20203;-68
2023/09/22 00:22:42;;;;;;;2.43;0.97;;;15.00;41.60;;;;;;5053241;28;20531;-69
2023/09/22 00:25:09;;;;;;;1.90;0.80;;;15.00;40.30;;;;;;5054827;28;20466;-68
2023/09/22 00:27:38;;;;;;;2.00;0.70;;;15.00;41.80;;;;;;5054856;28;20408;-69
2023/09/22 00:30:05;;;;;;;2.10;0.80;;;14.90;43.60;;;;;;5054889;28;20413;-69
2023/09/22 00:32:31;;;;;;;2.40;0.80;;;14.90;44.40;;;;;;5037009;28;21067;-68
2023/09/22 00:34:56;;;;;;;2.23;0.93;;;14.90;45.70;;;;;;5054733;28;20488;-68
2023/09/22 00:37:22;;;;;;;4.23;0.90;;;14.90;46.00;;;;;;5054701;28;20177;-69
2023/09/22 00:39:48;;;;;;;1.80;0.63;;;14.80;48.30;;;;;;5054418;28;20224;-69
2023/09/22 00:42:14;;;;;;;1.90;0.80;;;14.80;51.20;;;;;;5036370;28;20519;-69
2023/09/22 00:44:39;;;;;;;1.90;1.03;;;14.80;52.30;;;;;;5054544;28;20210;-68
2023/09/22 00:47:07;;;;;;;2.20;0.90;;;14.70;52.50;;;;;;5054432;28;20294;-68
2023/09/22 00:49:34;;;;;;;3.03;0.70;;;14.70;54.20;;;;;;5054522;28;20228;-68
2023/09/22 00:52:02;;;;;;;1.87;0.70;;;14.70;54.60;;;;;;5054335;28;20412;-69
2023/09/22 00:54:28;;;;;;;2.50;0.73;;;14.70;54.10;;;;;;5054048;28;20416;-69
2023/09/22 00:56:54;;;;;;;2.00;1.03;;;14.70;53.80;;;;;;5037074;28;20577;-68
2023/09/22 00:59:20;;;;;;;6.50;1.00;;;14.70;53.70;;;;;;5036251;28;20417;-68
2023/09/22 01:01:46;;;;;;;2.23;0.80;;;14.70;54.30;;;;;;5054062;28;20420;-68
2023/09/22 01:04:13;;;;;;;2.07;1.10;;;14.70;52.40;;;;;;5053858;28;20413;-70
2023/09/22 01:06:39;;;;;;;1.80;0.63;;;14.70;52.10;;;;;;5053945;28;20709;-69
2023/09/22 01:09:11;;;;;;;1.90;1.10;;;14.70;53.10;;;;;;5053938;28;20409;-69
2023/09/22 01:11:37;;;;;;;1.77;0.60;;;14.70;50.80;;;;;;5053942;28;20486;-69
2023/09/22 01:14:02;;;;;;;2.60;0.90;;;14.60;48.40;;;;;;5053641;28;20835;-69
2023/09/22 01:16:29;;;;;;;1.63;0.90;;;14.60;48.50;;;;;;5053792;28;20436;-68
2023/09/22 01:18:55;;;;;;;1.67;0.70;;;14.50;51.80;;;;;;5053835;28;20652;-69
2023/09/22 01:21:31;;;;;;;1.53;0.60;;;14.50;55.40;;;;;;5053608;28;20464;-69
2023/09/22 01:23:58;;;;;;;2.20;0.90;;;14.50;57.20;;;;;;5053492;28;20462;-69
2023/09/22 01:26:23;;;;;;;3.07;0.97;;;14.40;58.20;;;;;;5053623;28;20429;-69
2023/09/22 01:28:49;;;;;;;5.50;0.80;;;14.40;58.80;;;;;;5053769;28;20478;-69
2023/09/22 01:31:15;;;;;;;2.20;1.10;;;14.40;57.70;;;;;;5053476;28;20239;-69
2023/09/22 01:33:41;;;;;;;2.30;1.00;;;;;;;;;;5052462;28;20188;-69
2023/09/22 01:36:07;;;;;;;3.00;0.80;;;;;;;;;;5053399;28;20423;-70
2023/09/22 01:38:33;;;;;;;1.70;0.70;;;;;;;;;;5053356;28;20886;-69
2023/09/22 01:40:59;;;;;;;1.50;0.60;;;;;;;;;;5053248;28;20527;-69
2023/09/22 01:43:25;;;;;;;1.60;0.67;;;;;;;;;;5053070;28;20922;-70
2023/09/22 01:45:51;;;;;;;2.20;0.80;;;;;;;;;;5035561;28;21003;-68
2023/09/22 01:48:17;;;;;;;1.93;0.90;;;;;;;;;;5035359;28;20432;-69
2023/09/22 01:50:43;;;;;;;2.00;0.90;;;14.40;60.70;;;;;;5035203;28;20429;-69
2023/09/22 01:53:09;;;;;;;1.83;1.07;;;14.40;59.40;;;;;;5052880;28;20423;-68
2023/09/22 01:55:36;;;;;;;1.60;0.63;;;14.40;58.20;;;;;;5035172;28;20214;-69
2023/09/22 01:58:04;;;;;;;2.40;0.90;;;14.30;59.10;;;;;;5053170;28;20418;-69
2023/09/22 02:00:33;;;;;;;2.23;0.90;;;14.30;59.90;;;;;;5052883;28;20467;-69
2023/09/22 02:02:59;;;;;;;1.97;0.83;;;14.30;59.20;;;;;;5052724;28;20926;-68
2023/09/22 02:05:24;;;;;;;3.40;1.13;;;14.20;58.30;;;;;;5052899;28;20447;-68
2023/09/22 02:07:50;;;;;;;13.20;1.57;;;14.30;59.50;;;;;;5035089;28;20428;-69
2023/09/22 02:10:15;;;;;;;2.20;0.90;;;14.20;58.50;;;;;;5052841;28;20178;-68
2023/09/22 02:12:44;;;;;;;2.73;0.97;;;14.20;58.90;;;;;;5052579;28;20543;-68
2023/09/22 02:15:10;;;;;;;2.47;1.00;;;14.10;58.40;;;;;;5052645;28;20205;-68
2023/09/22 02:17:40;;;;;;;2.40;0.90;;;14.10;56.20;;;;;;5052698;28;20416;-69
2023/09/22 02:20:18;;;;;;;1.93;0.80;;;14.10;56.40;;;;;;5034687;28;20512;-68
2023/09/22 02:22:47;;;;;;;2.23;0.63;;;14.10;55.80;;;;;;5034494;28;20505;-68
2023/09/22 02:25:13;;;;;;;1.80;0.67;;;14.20;56.90;;;;;;5052445;28;20438;-68
2023/09/22 02:27:39;;;;;;;2.13;0.80;;;14.30;57.90;;;;;;5052566;28;20776;-68
2023/09/22 02:30:07;;;;;;;1.70;0.60;;;14.20;56.90;;;;;;5052391;28;20419;-69
2023/09/22 02:32:32;;;;;;;1.70;0.87;;;14.20;56.60;;;;;;5052191;28;20927;-69
2023/09/22 02:34:58;;;;;;;2.73;1.13;;;14.20;57.60;;;;;;5034450;28;20443;-69
2023/09/22 02:37:23;;;;;;;1.63;0.60;;;14.10;57.60;;;;;;5052464;28;20189;-69
2023/09/22 02:39:49;;;;;;;3.20;1.10;;;14.10;57.60;;;;;;5052160;28;20296;-69
2023/09/22 02:42:14;;;;;;;2.00;0.70;;;14.10;56.00;;;;;;5051952;28;20190;-69
2023/09/22 02:44:40;;;;;;;2.80;1.00;;;14.10;55.10;;;;;;5052136;28;20174;-69
2023/09/22 02:47:06;;;;;;;1.70;0.73;;;14.10;57.20;;;;;;5051966;28;20206;-68
2023/09/22 02:49:31;;;;;;;2.10;0.70;;;14.10;55.40;;;;;;5052052;28;20546;-69
2023/09/22 02:51:57;;;;;;;1.90;0.63;;;14.20;55.20;;;;;;5052004;28;20178;-69
2023/09/22 02:54:23;;;;;;;1.80;0.80;;;14.20;56.10;;;;;;5051843;28;20240;-69
2023/09/22 02:56:49;;;;;;;3.70;1.37;;;14.30;57.20;;;;;;5051958;28;20625;-69
2023/09/22 02:59:15;;;;;;;1.60;0.70;;;;;;;;;;5051817;28;20424;-69
2023/09/22 03:01:41;;;;;;;2.63;1.03;;;;;;;;;;5033957;28;20440;-69
2023/09/22 03:04:11;;;;;;;2.83;0.97;;;;;;;;;;5051669;28;20495;-69
2023/09/22 03:06:37;;;;;;;1.90;0.70;;;;;;;;;;5033836;28;20549;-69
2023/09/22 03:09:06;;;;;;;5.47;0.77;;;;;;;;;;5051779;28;20536;-69
2023/09/22 03:11:36;;;;;;;2.60;1.00;;;;;;;;;;5051675;28;20490;-69
2023/09/22 03:14:03;;;;;;;1.70;0.70;;;;;;;;;;5051509;28;20980;-68
2023/09/22 03:16:29;;;;;;;1.80;0.77;;;;;;;;;;5051622;28;20524;-68
2023/09/22 03:18:55;;;;;;;1.47;0.63;;;14.00;62.20;;;;;;5051704;28;20409;-69
2023/09/22 03:21:22;;;;;;;3.03;0.97;;;14.10;62.70;;;;;;5051428;28;20475;-68
2023/09/22 03:23:54;;;;;;;3.97;1.23;;;14.10;63.60;;;;;;5051444;28;20412;-68
2023/09/22 03:26:20;;;;;;;2.03;0.77;;;;;;;;;;5051537;28;20460;-69
2023/09/22 03:28:46;;;;;;;1.80;0.73;;;;;;;;;;5051588;28;20416;-68
2023/09/22 03:31:13;;;;;;;1.53;0.70;;;;;;;;;;5051512;28;20416;-68
2023/09/22 03:33:42;;;;;;;2.23;0.70;;;;;;;;;;5051356;28;20416;-69
2023/09/22 03:36:12;;;;;;;2.20;1.20;;;;;;;;;;5051500;28;20514;-69
2023/09/22 03:38:39;;;;;;;3.40;0.80;;;;;;;;;;5051608;28;20991;-68
2023/09/22 03:41:05;;;;;;;2.90;1.03;;;;;;;;;;5051466;28;20545;-69
2023/09/22 03:43:31;;;;;;;3.33;0.77;;;;;;;;;;5051316;28;20413;-69
2023/09/22 03:45:57;;;;;;;2.13;0.97;;;;;;;;;;5051686;28;20435;-69
2023/09/22 03:48:23;;;;;;;2.00;0.77;;;;;;;;;;5051533;28;20493;-70
2023/09/22 03:50:49;;;;;;;2.57;1.00;;;;;;;;;;5051414;28;20420;-70
2023/09/22 03:53:15;;;;;;;1.90;0.70;;;;;;;;;;5051165;28;20423;-69
2023/09/22 03:55:43;;;;;;;1.80;0.83;;;;;;;;;;5051444;28;20441;-69
2023/09/22 03:58:09;;;;;;;1.50;0.50;;;14.40;54.90;;;;;;5036867;28;20497;-69
2023/09/22 04:00:34;;;;;;;1.93;0.80;;;14.40;49.90;;;;;;5055290;28;20486;-68
2023/09/22 04:03:00;;;;;;;3.90;1.07;;;14.40;51.60;;;;;;5055038;28;20182;-69
2023/09/22 04:05:26;;;;;;;3.87;1.17;;;14.40;52.70;;;;;;5037055;28;20285;-69
2023/09/22 04:07:54;;;;;;;3.20;1.00;;;14.30;52.00;;;;;;5037412;28;20193;-70
2023/09/22 04:10:20;;;;;;;1.73;0.90;;;14.20;53.40;;;;;;5055076;28;20416;-68
2023/09/22 04:12:46;;;;;;;2.47;0.77;;;14.20;53.70;;;;;;5054816;28;20429;-68
2023/09/22 04:15:11;;;;;;;1.50;0.60;;;14.10;53.20;;;;;;5036647;28;20425;-69
2023/09/22 04:17:38;;;;;;;1.77;0.80;;;14.20;54.00;;;;;;5055011;28;20478;-68
2023/09/22 04:20:11;;;;;;;2.03;0.70;;;14.10;53.30;;;;;;5054895;28;20722;-68
2023/09/22 04:22:41;;;;;;;1.83;0.93;;;14.10;55.00;;;;;;5054717;28;20419;-68
2023/09/22 04:25:10;;;;;;;2.73;0.87;;;14.10;55.00;;;;;;5036770;28;20414;-68
2023/09/22 04:27:43;;;;;;;3.30;0.90;;;14.10;55.00;;;;;;5054847;28;20409;-68
2023/09/22 04:30:12;;;;;;;2.23;0.87;;;14.10;56.60;;;;;;5054716;28;20447;-69
2023/09/22 04:32:38;;;;;;;3.60;0.73;;;;;;;;;;5054425;28;20511;-68
2023/09/22 04:35:07;;;;;;;2.70;1.00;;;;;;;;;;5054505;28;20414;-69
2023/09/22 04:37:33;;;;;;;2.03;0.67;;;;;;;;;;5054591;28;20765;-69
2023/09/22 04:39:59;;;;;;;2.37;0.93;;;;;;;;;;5054460;28;20464;-68
2023/09/22 04:42:25;;;;;;;1.60;0.70;;;;;;;;;;5036316;28;21141;-69
2023/09/22 04:44:55;;;;;;;1.70;0.67;;;;;;;;;;5054480;28;21094;-68
2023/09/22 04:47:21;;;;;;;2.23;0.60;;;;;;;;;;5054474;28;20494;-69
2023/09/22 04:49:47;;;;;;;3.73;1.20;;;;;;;;;;5054264;28;20451;-69
2023/09/22 04:52:13;;;;;;;2.47;1.00;;;;;;;;;;5036122;28;20425;-69
2023/09/22 04:54:40;;;;;;;1.63;0.70;;;;;;;;;;5054273;28;20749;-68
2023/09/22 04:57:06;;;;;;;2.03;1.10;;;;;;;;;;5054145;28;20436;-68
2023/09/22 04:59:32;;;;;;;1.60;0.80;;;;;;;;;;5036150;28;21180;-68
2023/09/22 05:01:59;;;;;;;1.60;0.57;;;;;;;;;;5054111;28;20521;-68
2023/09/22 05:04:25;;;;;;;1.50;0.60;;;;;;;;;;5053867;28;20406;-69
2023/09/22 05:06:51;;;;;;;2.90;0.93;;;;;;;;;;5053920;28;20920;-69
2023/09/22 05:09:17;;;;;;;2.70;0.87;;;;;;;;;;5052691;28;20415;-69
2023/09/22 05:11:44;;;;;;;2.00;0.70;;;;;;;;;;5053937;28;20405;-68
2023/09/22 05:14:10;;;;;;;1.90;1.03;;;;;;;;;;5053763;28;20411;-69
2023/09/22 05:16:37;;;;;;;3.60;1.00;;;;;;;;;;5035769;28;21007;-68
2023/09/22 05:19:03;;;;;;;2.10;0.90;;;;;;;;;;5053727;28;20414;-69
2023/09/22 05:21:29;;;;;;;1.63;0.70;;;;;;;;;;5053664;28;20977;-69
2023/09/22 05:23:55;;;;;;;2.07;0.80;;;;;;;;;;5053540;28;20490;-68
2023/09/22 05:26:21;;;;;;;1.97;0.90;;;;;;;;;;5053588;28;20506;-69
2023/09/22 05:28:49;;;;;;;1.90;0.80;;;;;;;;;;5053797;28;20978;-69
2023/09/22 05:31:16;;;;;;;2.70;0.67;;;;;;;;;;5035488;28;20510;-69
2023/09/22 05:33:42;;;;;;;1.50;0.60;;;;;;;;;;5053398;28;20498;-69
2023/09/22 05:36:08;;;;;;;2.50;0.90;;;;;;;;;;5053506;28;20520;-71
2023/09/22 05:38:35;;;;;;;2.03;0.73;;;;;;;;;;5035583;28;20517;-68
2023/09/22 05:41:01;;;;;;;3.50;0.80;;;;;;;;;;5035392;28;20835;-69
2023/09/22 05:43:27;;;;;;;2.57;0.90;;;;;;;;;;5053132;28;20471;-69
2023/09/22 05:45:57;;;;;;;1.70;0.70;;;;;;;;;;5053329;28;20440;-69
2023/09/22 05:48:23;;;;;;;2.40;1.00;;;;;;;;;;5053120;28;20444;-69
2023/09/22 05:50:59;;;;;;;5.23;1.13;;;;;;;;;;5053188;28;20407;-69
2023/09/22 05:53:26;;;;;;;2.13;0.90;;;;;;;;;;5052952;28;20408;-68
2023/09/22 05:56:05;;;;;;;3.50;1.23;;;;;;;;;;5053130;28;20566;-69
2023/09/22 05:58:31;;;;;;;2.40;0.93;;;;;;;;;;5053001;28;20484;-68
2023/09/22 06:00:58;;;;;;;2.43;1.07;;;;;;;;;;5052828;28;20511;-68
2023/09/22 06:03:24;;;;;;;2.20;1.00;;;;;;;;;;5052646;28;20409;-68
2023/09/22 06:05:50;;;;;;;2.63;0.60;;;;;;;;;;5052363;28;20445;-69
2023/09/22 06:08:20;;;;;;;2.23;0.90;;;;;;;;;;5051893;28;20419;-69
2023/09/22 06:10:46;;;;;;;2.27;0.80;;;14.90;50.40;;;;;;5051904;28;20424;-68
2023/09/22 06:13:11;;;;;;;1.70;0.60;;;14.90;48.50;;;;;;5051657;28;20432;-68
2023/09/22 06:15:38;;;;;;;2.13;0.83;;;15.00;48.70;;;;;;5051781;28;20198;-68
2023/09/22 06:18:04;;;;;;;1.80;0.80;;;15.00;50.70;;;;;;5051686;28;20432;-68
2023/09/22 06:20:30;;;;;;;2.80;1.20;;;;;;;;;;5033263;28;20237;-68
2023/09/22 06:22:57;;;;;;;1.60;0.63;;;;;;;;;;5051574;28;20409;-68
2023/09/22 06:25:26;;;;;;;1.87;0.80;;;;;;;;;;5051771;28;20432;-69
2023/09/22 06:27:54;;;;;;;2.00;0.70;;;;;;;;;;5051815;28;20754;-68
2023/09/22 06:30:20;;;;;;;2.20;0.73;;;;;;;;;;5051609;28;20431;-68
2023/09/22 06:32:46;;;;;;;2.57;1.43;;;;;;;;;;5051541;28;20413;-69
2023/09/22 06:35:12;;;;;;;3.90;1.03;;;;;;;;;;5051806;28;20747;-69
2023/09/22 06:37:39;;;;;;;3.30;1.20;;;;;;;;;;5051681;28;20445;-68
2023/09/22 06:40:11;;;;;;;1.70;0.93;;;;;;;;;;5051443;28;20818;-68
2023/09/22 06:42:45;;;;;;;2.23;0.87;;;;;;;;;;5051436;28;20432;-69
2023/09/22 06:45:15;;;;;;;1.90;0.90;;;;;;;;;;5051573;28;20808;-69
2023/09/22 06:47:43;;;;;;;2.50;0.63;;;;;;;;;;5027560;28;20459;-69
2023/09/22 06:50:09;;;;;;;1.53;0.70;;;;;;;;;;5047792;28;20419;-69
2023/09/22 06:52:40;;;;;;;2.03;0.80;;;;;;;;;;5046989;28;20520;-69
2023/09/22 06:55:08;;;;;;;1.70;0.77;;;;;;;;;;5049679;28;20439;-69
2023/09/22 06:57:36;;;;;;;2.50;0.67;;;;;;;;;;5051308;28;20976;-69
2023/09/22 07:00:05;;;;;;;2.60;0.67;;;;;;;;;;5051108;28;20464;-69
2023/09/22 07:02:31;;;;;;;2.27;0.97;;;;;;;;;;5051673;28;20433;-70
2023/09/22 07:04:58;;;;;;;2.03;1.03;;;15.60;48.20;;;;;;5015713;28;1049116;-69
2023/09/22 07:07:23;;;;;;;2.03;1.47;;;15.70;48.20;;;;;;5052040;28;20436;-69
2023/09/22 07:09:49;;;;;;;3.03;0.80;;;15.90;46.50;;;;;;5052142;28;20455;-68
2023/09/22 07:12:15;;;;;;;2.47;0.80;;;15.90;46.50;;;;;;5051771;28;20257;-68
2023/09/22 07:14:40;;;;;;;3.60;1.03;;;16.00;45.90;;;;;;5051833;28;20190;-68
2023/09/22 07:17:08;;;;;;;1.80;0.70;;;;;;;;;;5053188;28;20206;-71
2023/09/22 07:19:38;;;;;;;1.80;0.90;;;;;;;;;;5051797;28;20929;-68
2023/09/22 07:22:04;;;;;;;2.70;0.97;;;;;;;;;;5051838;28;20478;-68
2023/09/22 07:24:30;;;;;;;2.53;1.40;;;;;;;;;;5051680;28;20421;-69
2023/09/22 07:26:56;;;;;;;2.30;1.00;;;16.30;43.50;;;;;;5034100;28;20433;-69
2023/09/22 07:29:22;;;;;;;4.03;0.90;;;16.40;43.40;;;;;;5033926;28;20413;-69
2023/09/22 07:31:47;;;;;;;2.57;1.30;;;16.60;43.40;;;;;;5052987;28;20166;-69
2023/09/22 07:34:13;;;;;;;3.20;1.53;;;16.70;40.60;;;;;;5037768;28;20968;-70
2023/09/22 07:36:39;;;;;;;1.83;0.77;;;16.90;39.80;;;;;;5055837;28;20205;-69
2023/09/22 07:39:05;;;;;;;1.80;0.77;;;;;;;;;;5055957;28;20177;-68
2023/09/22 07:41:31;;;;;;;1.83;0.83;;;;;;;;;;5055911;28;20990;-69
2023/09/22 07:43:57;;;;;;;2.20;1.00;;;;;;;;;;5037735;28;20499;-70
2023/09/22 07:46:23;;;;;;;1.97;0.80;;;16.70;38.30;;;;;;5055687;28;20432;-68
2023/09/22 07:48:51;;;;;;;1.90;1.00;;;16.70;37.90;;;;;;5038001;28;20465;-68
2023/09/22 07:51:16;;;;;;;8.50;1.17;;;16.70;38.10;;;;;;5055477;28;20425;-70
2023/09/22 07:53:44;;;;;;;2.30;0.90;;;16.60;38.10;;;;;;5055219;28;20431;-69
2023/09/22 07:56:12;;;;;;;2.03;0.70;;;;;;;;;;5055599;28;20198;-67
2023/09/22 07:58:41;;;;;;;2.00;0.90;;;;;;;;;;5055486;28;20416;-65
2023/09/22 08:01:12;;;;;;;1.97;0.93;;;16.70;40.40;;;;;;5055214;28;20979;-68
2023/09/22 08:03:38;;;;;;;2.13;0.90;;;16.70;38.60;;;;;;5055085;28;20436;-66
2023/09/22 08:06:05;;;;;;;2.37;1.10;;;16.60;39.40;;;;;;5063000;22;20868;-70
2023/09/22 08:08:31;;;;;;;6.50;1.10;;;16.50;42.00;;;;;;5035336;28;20250;-68
2023/09/22 08:10:58;;;;;;;2.53;1.20;;;16.50;44.30;;;;;;5035244;28;20433;-69
2023/09/22 08:13:24;;;;;;;1.90;0.70;;;16.50;42.00;;;;;;5034999;28;20171;-69
2023/09/22 08:15:49;;;;;;;4.17;1.37;;;16.60;41.60;;;;;;5035203;28;20441;-69
2023/09/22 08:18:17;;;;;;;3.87;1.20;;;16.40;43.50;;;;;;5035112;28;20182;-69
2023/09/22 08:20:42;;;;;;;2.37;1.27;;;16.40;43.80;;;;;;5035137;28;20292;-70
2023/09/22 08:23:08;;;;;;;5.13;2.17;;;16.40;45.70;;;;;;5034678;28;20912;-69
2023/09/22 08:25:43;;;;;;;10.47;1.90;;;16.60;45.90;;;;;;5034824;28;20198;-70
2023/09/22 08:28:12;;;;;;;2.30;1.23;;;16.80;44.10;;;;;;5035092;28;20202;-70
2023/09/22 08:30:39;;;;;;;3.17;1.10;;;17.00;39.80;;;;;;5034785;28;20791;-70
2023/09/22 08:33:08;;;;;;;2.30;1.00;;;17.30;41.10;;;;;;5033206;28;20475;-69
2023/09/22 08:35:34;;;;;;;4.40;1.80;;;17.80;37.90;;;;;;5034682;28;20918;-70
2023/09/22 08:38:02;;;;;;;1.80;0.80;;;;;;;;;;5035099;28;20422;-69
2023/09/22 08:40:29;;;;;;;6.03;1.00;;;;;;;;;;5034788;28;20209;-70
2023/09/22 08:42:55;;;;;;;2.40;1.00;;;;;;;;;;5034173;28;20777;-70
2023/09/22 08:45:22;;;;;;;1.90;0.77;;;;;;;;;;5034636;28;20416;-68
2023/09/22 08:47:49;;;;;;;2.00;1.03;;;;;;;;;;5033207;28;20413;-69
2023/09/22 08:50:16;;;;;;;3.07;1.10;;;;;;;;;;5033205;28;20418;-70
2023/09/22 08:52:45;;;;;;;1.63;0.67;;;19.40;26.00;;;;;;5034366;28;20803;-70
2023/09/22 08:55:12;;;;;;;1.77;0.73;;;19.60;25.80;;;;;;5034401;28;20409;-68
2023/09/22 08:57:40;;;;;;;2.20;0.90;;;19.50;26.40;;;;;;5034312;28;20414;-68
2023/09/22 09:00:12;;;;;;;2.03;0.80;;;;;;;;;;5034023;28;20492;-69
2023/09/22 09:02:39;;;;;;;1.60;0.60;;;19.40;26.50;;;;;;5034300;28;20418;-69
2023/09/22 09:05:39;;;;;;;2.60;1.20;;;19.10;23.80;;;;;;5034300;28;20410;-70
2023/09/22 09:08:10;;;;;;;2.20;1.07;;;;;;;;;;5001730;28;20948;-70
2023/09/22 09:10:36;;;;;;;2.37;0.70;;;;;;;;;;5034090;28;20496;-68
2023/09/22 09:13:03;;;;;;;2.10;1.13;;;;;;;;;;5033828;28;20410;-69
2023/09/22 09:15:43;;;;;;;1.50;0.60;;;;;;;;;;5034169;28;20861;-69
2023/09/22 09:18:11;;;;;;;1.90;1.17;;;;;;;;;;5034288;28;20395;-68
2023/09/22 09:20:40;;;;;;;1.70;0.70;;;;;;;;;;5033814;28;20549;-69
2023/09/22 09:23:18;;;;;;;2.80;0.70;;;;;;;;;;5033812;28;20418;-68
2023/09/22 09:25:49;;;;;;;2.30;1.10;;;;;;;;;;5033867;28;20426;-69
2023/09/22 09:28:16;;;;;;;3.63;1.23;;;;;;;;;;5033897;28;20909;-69
2023/09/22 09:31:10;;;;;;;3.23;1.40;;;;;;;;;;5034642;28;20414;-68
2023/09/22 09:33:36;;;;;;;7.27;1.37;;;;;;;;;;5031661;28;20457;-68
2023/09/22 09:36:15;;;;;;;4.50;1.00;;;;;;;;;;5033874;28;20462;-68
2023/09/22 09:38:42;;;;;;;1.97;0.83;;;;;;;;;;5033914;28;20402;-69
2023/09/22 09:41:08;;;;;;;2.23;1.37;;;;;;;;;;5034112;28;20461;-69
2023/09/22 09:43:34;;;;;;;2.00;1.03;;;;;;;;;;5034316;28;20414;-69
2023/09/22 09:46:00;;;;;;;2.33;0.83;;;;;;;;;;5033773;28;20466;-69
2023/09/22 09:48:27;;;;;;;2.10;0.97;;;;;;;;;;5032327;28;20418;-70
2023/09/22 09:50:54;;;;;;;2.97;0.97;;;;;;;;;;5033613;28;20783;-68
2023/09/22 09:53:30;;;;;;;1.73;0.70;;;;;;;;;;5033450;28;20445;-68
2023/09/22 09:55:59;;;;;;;2.33;0.77;;;;;;;;;;5032755;28;20484;-69
2023/09/22 09:58:30;;;;;;;1.57;0.67;;;;;;;;;;5033495;28;20410;-69
2023/09/22 10:00:56;;;;;;;2.97;0.93;;;;;;;;;;5032022;28;20489;-69
2023/09/22 10:03:22;;;;;;;1.73;0.90;;;;;;;;;;5033285;28;20406;-68
2023/09/22 10:05:51;;;;;;;2.20;0.80;;;;;;;;;;5031781;28;20504;-69
2023/09/22 10:08:19;;;;;;;1.60;0.60;;;;;;;;;;5033183;28;20955;-70
2023/09/22 10:10:45;;;;;;;2.97;0.80;;;;;;;;;;5033043;28;20410;-70
2023/09/22 10:13:11;;;;;;;1.83;0.80;;;;;;;;;;5031304;28;20446;-68
2023/09/22 10:15:54;;;;;;;2.37;1.03;;;;;;;;;;5033096;28;20473;-69
2023/09/22 10:18:45;;;;;;;2.03;0.80;;;;;;;;;;5032847;28;20489;-69
2023/09/22 10:21:30;;;;;;;1.60;0.63;;;;;;;;;;5032962;28;20461;-69
2023/09/22 10:24:14;;;;;;;2.00;0.80;;;;;;;;;;5032658;28;20418;-68
2023/09/22 10:26:55;;;;;;;2.27;1.23;;;;;;;;;;5032630;28;20501;-69
2023/09/22 10:29:36;;;;;;;1.87;0.70;;;;;;;;;;5032609;28;20406;-70
2023/09/22 10:32:17;;;;;;;2.10;1.00;;;;;;;;;;5032563;28;20762;-69
2023/09/22 10:34:49;;;;;;;2.03;1.13;;;;;;;;;;5032764;28;20404;-69
2023/09/22 10:37:16;;;;;;;2.40;1.10;;;;;;;;;;5031458;28;20851;-70
2023/09/22 10:40:03;;;;;;;3.13;1.20;;;;;;;;;;5032475;28;20401;-69
2023/09/22 10:42:29;;;;;;;3.00;1.27;;;;;;;;;;5032350;28;20398;-69
2023/09/22 10:44:58;;;;;;;4.33;1.50;;;;;;;;;;5033031;28;20811;-70
2023/09/22 10:47:27;;;;;;;2.20;1.10;;;;;;;;;;5032404;28;20433;-70
2023/09/22 10:49:53;;;;;;;2.27;0.97;;;;;;;;;;5032456;28;20410;-70
2023/09/22 10:52:19;;;;;;;2.90;1.67;;;;;;;;;;5032308;28;20757;-69
2023/09/22 10:54:47;;;;;;;2.00;1.10;;;;;;;;;;5032485;28;20497;-70
2023/09/22 10:57:27;;;;;;;2.83;1.40;;;;;;;;;;5032467;28;20429;-70
2023/09/22 10:59:55;;;;;;;2.10;1.30;;;;;;;;;;5032195;28;20949;-70
2023/09/22 11:02:25;;;;;;;1.90;1.03;;;;;;;;;;5033203;28;20410;-70
2023/09/22 11:04:51;;;;;;;2.00;1.07;;;;;;;;;;5032253;28;20406;-69
2023/09/22 11:07:36;;;;;;;2.17;1.00;;;;;;;;;;5030506;28;20995;-69
2023/09/22 11:10:02;;;;;;;2.70;1.30;;;;;;;;;;5032428;28;20418;-70
2023/09/22 11:12:28;;;;;;;2.47;1.20;;;;;;;;;;5032153;28;20438;-70
2023/09/22 11:14:58;;;;;;;2.47;1.30;;;;;;;;;;5032156;28;20444;-69
2023/09/22 11:17:37;;;;;;;1.70;1.00;;;;;;;;;;5032652;28;20438;-69
2023/09/22 11:20:12;;;;;;;1.90;1.13;;;;;;;;;;5031964;28;20836;-70
2023/09/22 11:22:38;;;;;;;3.20;1.17;;;;;;;;;;5031850;28;20405;-69
2023/09/22 11:25:05;;;;;;;1.93;1.20;;;;;;;;;;5031938;28;20425;-69
2023/09/22 11:27:31;;;;;;;2.23;0.90;;;;;;;;;;5030890;28;20438;-70
2023/09/22 11:30:13;;;;;;;1.90;1.20;;;;;;;;;;5031895;28;21003;-69
2023/09/22 11:32:39;;;;;;;2.37;1.33;;;;;;;;;;5030409;28;20433;-70
2023/09/22 11:35:05;;;;;;;2.00;1.20;;;;;;;;;;5031749;28;20410;-69
2023/09/22 11:37:31;;;;;;;2.00;1.17;;;;;;;;;;5030320;28;20442;-69
2023/09/22 11:39:57;;;;;;;2.40;1.20;;;;;;;;;;5031522;28;20870;-68
2023/09/22 11:42:23;;;;;;;2.50;1.33;;;;;;;;;;5031569;28;20414;-69
2023/09/22 11:44:59;;;;;;;2.07;1.20;;;;;;;;;;5031588;28;20835;-69
2023/09/22 11:47:25;;;;;;;1.70;1.00;;;;;;;;;;5031565;28;20790;-70
2023/09/22 11:49:51;;;;;;;2.07;1.30;;;;;;;;;;5030420;28;20815;-70
2023/09/22 11:52:27;;;;;;;3.47;1.57;;;;;;;;;;5030260;28;20426;-70
2023/09/22 11:54:53;;;;;;;5.20;1.50;;;;;;;;;;5031605;28;20467;-70
2023/09/22 11:57:19;;;;;;;2.47;1.27;;;;;;;;;;5030376;28;20446;-70
2023/09/22 11:59:48;;;;;;;4.70;1.33;;;;;;;;;;5031693;28;20512;-70
2023/09/22 12:02:14;;;;;;;1.83;0.90;;;;;;;;;;5032053;28;20770;-71
2023/09/22 12:04:40;;;;;;;1.80;1.17;;;;;;;;;;5032951;28;20421;-70
2023/09/22 12:07:06;;;;;;;1.60;1.00;;;;;;;;;;5031871;28;20501;-70
2023/09/22 12:09:32;;;;;;;2.47;1.00;;;;;;;;;;5030186;28;20465;-70
2023/09/22 12:11:58;;;;;;;2.17;1.37;;;;;;;;;;5031345;28;20411;-69
2023/09/22 12:14:24;;;;;;;2.13;1.27;;;;;;;;;;5031882;28;20493;-70
2023/09/22 12:16:51;;;;;;;2.10;1.30;;;;;;;;;;5031938;28;20425;-69
2023/09/22 12:19:19;;;;;;;1.80;1.00;;;;;;;;;;5034754;28;20501;-68
2023/09/22 12:21:45;;;;;;;4.20;1.33;;;;;;;;;;5035104;28;20515;-67
2023/09/22 12:24:11;;;;;;;2.13;1.00;;;;;;;;;;5034841;28;20744;-67
2023/09/22 12:26:37;;;;;;;2.10;1.20;;;;;;;;;;5034894;28;20437;-68
2023/09/22 12:29:05;;;;;;;1.67;1.17;;;;;;;;;;5033589;28;20493;-68
2023/09/22 12:31:31;;;;;;;2.43;1.10;;;;;;;;;;5033454;28;20869;-68
2023/09/22 12:33:57;;;;;;;3.40;1.20;;;;;;;;;;5034598;28;20411;-68
2023/09/22 12:36:23;;;;;;;2.13;1.50;;;;;;;;;;5033621;28;20429;-69
2023/09/22 12:38:49;;;;;;;2.03;1.47;;;;;;;;;;5034822;28;20415;-69
2023/09/22 12:41:15;;;;;;;3.20;1.90;;;;;;;;;;5033322;28;20552;-69
2023/09/22 12:43:41;;;;;;;1.87;1.23;;;;;;;;;;5034598;28;20892;-69
2023/09/22 12:46:12;;;;;;;6.13;2.30;;;;;;;;;;5034496;28;20433;-69
2023/09/22 12:48:41;;;;;;;2.13;1.40;;;;;;;;;;5034616;28;20411;-70
2023/09/22 12:51:10;;;;;;;2.07;1.20;;;;;;;;;;5034349;28;20780;-69
2023/09/22 12:53:37;;;;;;;2.47;1.50;;;;;;;;;;5034342;28;20882;-69
2023/09/22 12:56:03;;;;;;;2.47;1.40;;;;;;;;;;5034423;28;20429;-69
2023/09/22 12:58:29;;;;;;;3.87;1.80;;;;;;;;;;5033074;28;20445;-69
2023/09/22 13:00:58;;;;;;;2.33;1.90;;;;;;;;;;5033235;28;20470;-69
2023/09/22 13:03:25;;;;;;;3.10;1.47;;;;;;;;;;5034077;28;20414;-69
2023/09/22 13:05:51;;;;;;;2.83;1.50;;;;;;;;;;5034091;28;20785;-69
2023/09/22 13:08:17;;;;;;;2.97;1.53;;;;;;;;;;5034003;28;20410;-68
2023/09/22 13:10:44;;;;;;;2.13;1.70;;;;;;;;;;5034119;28;20433;-69
2023/09/22 13:13:11;;;;;;;2.33;1.50;;;;;;;;;;5033742;28;20422;-69
2023/09/22 13:15:41;;;;;;;2.20;1.53;;;;;;;;;;5033873;28;21022;-69
2023/09/22 13:18:07;;;;;;;1.70;1.57;;;;;;;;;;5034025;28;20410;-69
2023/09/22 13:20:33;;;;;;;2.47;1.60;;;;;;;;;;5033961;28;20461;-69
2023/09/22 13:23:01;;;;;;;2.00;1.63;;;;;;;;;;5033666;28;20418;-69
2023/09/22 13:25:27;;;;;;;2.10;1.80;;;;;;;;;;5033864;28;20754;-69
2023/09/22 13:27:53;;;;;;;1.70;1.40;;;;;;;;;;5033898;28;20406;-69
2023/09/22 13:30:20;;;;;;;2.70;1.40;;;;;;;;;;5032824;28;20410;-69
2023/09/22 13:32:46;;;;;;;1.77;1.53;;;;;;;;;;5033658;28;20418;-69
2023/09/22 13:35:12;;;;;;;1.80;1.43;;;;;;;;;;5033524;28;20422;-69
2023/09/22 13:37:37;;;;;;;1.70;1.27;;;;;;;;;;5033375;28;20890;-69
2023/09/22 13:40:10;;;;;;;1.90;1.50;;;;;;;;;;5033220;28;20453;-69
2023/09/22 13:42:36;;;;;;;1.80;1.37;;;;;;;;;;5032345;28;20414;-69
2023/09/22 13:45:05;;;;;;;3.13;1.87;;;;;;;;;;5033803;28;20457;-68
2023/09/22 13:47:31;;;;;;;1.80;1.53;;;;;;;;;;5032358;28;20529;-68
2023/09/22 13:49:57;;;;;;;2.20;1.30;;;;;;;;;;5033433;28;20453;-68
2023/09/22 13:52:23;;;;;;;1.90;1.70;;;;;;;;;;5032012;28;20460;-67
2023/09/22 13:54:49;;;;;;;2.00;1.53;;;;;;;;;;5033534;28;20782;-68
2023/09/22 13:57:16;;;;;;;2.10;1.40;;;;;;;;;;5033131;28;20508;-68
2023/09/22 13:59:43;;;;;;;1.87;1.47;;;;;;;;;;5031863;28;20963;-68
2023/09/22 14:02:09;;;;;;;1.83;1.50;;;;;;;;;;5033160;28;20650;-68